sensor_id;sensor_type;location;lat;lon;timestamp;pressure;altitude;pressure_sealevel;temperature;humidity
36254;BME280;22291;52.250;21.228;2022-11-20T00:01:15;100196.35;;;-5.63;75.72
36254;BME280;22291;52.250;21.228;2022-11-20T00:03:44;100191.80;;;-5.65;75.72
36254;BME280;22291;52.250;21.228;2022-11-20T00:06:13;100194.12;;;-5.66;75.59
36254;BME280;22291;52.250;21.228;2022-11-20T00:08:42;100195.84;;;-5.69;75.61
36254;BME280;22291;52.250;21.228;2022-11-20T00:11:18;100199.91;;;-5.73;75.59
36254;BME280;22291;52.250;21.228;2022-11-20T00:13:44;100209.33;;;-5.75;75.66
36254;BME280;22291;52.250;21.228;2022-11-20T00:16:14;100200.71;;;-5.79;75.57
36254;BME280;22291;52.250;21.228;2022-11-20T00:18:41;100204.14;;;-5.86;75.68
36254;BME280;22291;52.250;21.228;2022-11-20T00:21:10;100198.59;;;-5.87;75.79
36254;BME280;22291;52.250;21.228;2022-11-20T00:23:38;100201.11;;;-5.89;75.86
36254;BME280;22291;52.250;21.228;2022-11-20T00:26:07;100196.16;;;-5.95;75.87
36254;BME280;22291;52.250;21.228;2022-11-20T00:28:35;100204.57;;;-5.95;76.00
36254;BME280;22291;52.250;21.228;2022-11-20T00:31:04;100201.37;;;-5.97;76.12
36254;BME280;22291;52.250;21.228;2022-11-20T00:33:36;100197.42;;;-5.97;76.22
36254;BME280;22291;52.250;21.228;2022-11-20T00:36:08;100192.55;;;-6.01;76.23
36254;BME280;22291;52.250;21.228;2022-11-20T00:38:36;100196.50;;;-6.01;76.34
36254;BME280;22291;52.250;21.228;2022-11-20T00:41:05;100199.62;;;-6.01;76.32
36254;BME280;22291;52.250;21.228;2022-11-20T00:43:33;100200.13;;;-6.02;76.35
36254;BME280;22291;52.250;21.228;2022-11-20T00:46:19;100196.70;;;-6.02;76.33
36254;BME280;22291;52.250;21.228;2022-11-20T00:48:44;100193.27;;;-6.03;76.43
36254;BME280;22291;52.250;21.228;2022-11-20T00:51:14;100190.20;;;-6.06;76.46
36254;BME280;22291;52.250;21.228;2022-11-20T00:53:42;100193.06;;;-6.08;76.44
36254;BME280;22291;52.250;21.228;2022-11-20T00:56:13;100187.98;;;-6.09;76.42
36254;BME280;22291;52.250;21.228;2022-11-20T00:58:43;100191.62;;;-6.10;76.58
36254;BME280;22291;52.250;21.228;2022-11-20T01:01:15;100196.58;;;-6.11;76.60
36254;BME280;22291;52.250;21.228;2022-11-20T01:03:46;100192.85;;;-6.13;76.64
36254;BME280;22291;52.250;21.228;2022-11-20T01:06:19;100183.20;;;-6.16;76.74
36254;BME280;22291;52.250;21.228;2022-11-20T01:08:49;100180.37;;;-6.15;76.76
36254;BME280;22291;52.250;21.228;2022-11-20T01:11:27;100189.91;;;-6.14;76.90
36254;BME280;22291;52.250;21.228;2022-11-20T01:13:52;100179.17;;;-6.12;77.05
36254;BME280;22291;52.250;21.228;2022-11-20T01:16:26;100173.39;;;-6.12;77.14
36254;BME280;22291;52.250;21.228;2022-11-20T01:18:58;100164.97;;;-6.11;77.16
36254;BME280;22291;52.250;21.228;2022-11-20T01:21:28;100172.39;;;-6.11;77.05
36254;BME280;22291;52.250;21.228;2022-11-20T01:23:57;100166.80;;;-6.12;77.12
36254;BME280;22291;52.250;21.228;2022-11-20T01:26:27;100167.32;;;-6.12;76.90
36254;BME280;22291;52.250;21.228;2022-11-20T01:28:56;100162.05;;;-6.12;76.96
36254;BME280;22291;52.250;21.228;2022-11-20T01:31:26;100164.17;;;-6.12;77.02
36254;BME280;22291;52.250;21.228;2022-11-20T01:33:56;100153.35;;;-6.13;76.92
36254;BME280;22291;52.250;21.228;2022-11-20T01:36:26;100160.13;;;-6.14;76.87
36254;BME280;22291;52.250;21.228;2022-11-20T01:38:57;100157.98;;;-6.15;76.89
36254;BME280;22291;52.250;21.228;2022-11-20T01:41:26;100160.81;;;-6.16;76.82
36254;BME280;22291;52.250;21.228;2022-11-20T01:44:14;100161.53;;;-6.18;76.77
36254;BME280;22291;52.250;21.228;2022-11-20T01:46:55;100158.09;;;-6.26;76.57
36254;BME280;22291;52.250;21.228;2022-11-20T01:49:27;100162.44;;;-6.29;76.74
36254;BME280;22291;52.250;21.228;2022-11-20T01:51:57;100155.45;;;-6.32;76.74
36254;BME280;22291;52.250;21.228;2022-11-20T01:54:30;100163.55;;;-6.34;76.66
36254;BME280;22291;52.250;21.228;2022-11-20T01:57:05;100154.44;;;-6.38;76.79
36254;BME280;22291;52.250;21.228;2022-11-20T01:59:33;100155.95;;;-6.40;77.04
36254;BME280;22291;52.250;21.228;2022-11-20T02:02:02;100147.66;;;-6.43;77.09
36254;BME280;22291;52.250;21.228;2022-11-20T02:04:29;100142.39;;;-6.43;77.25
36254;BME280;22291;52.250;21.228;2022-11-20T02:06:58;100141.36;;;-6.42;77.43
36254;BME280;22291;52.250;21.228;2022-11-20T02:09:27;100140.16;;;-6.40;77.61
36254;BME280;22291;52.250;21.228;2022-11-20T02:11:54;100137.81;;;-6.39;77.68
36254;BME280;22291;52.250;21.228;2022-11-20T02:14:22;100132.36;;;-6.37;77.96
36254;BME280;22291;52.250;21.228;2022-11-20T02:16:49;100129.13;;;-6.32;78.12
36254;BME280;22291;52.250;21.228;2022-11-20T02:19:24;100121.63;;;-6.29;78.26
36254;BME280;22291;52.250;21.228;2022-11-20T02:24:23;100130.65;;;-6.21;78.75
36254;BME280;22291;52.250;21.228;2022-11-20T02:27:02;100124.78;;;-6.16;78.88
36254;BME280;22291;52.250;21.228;2022-11-20T02:29:51;100128.63;;;-6.12;78.92
36254;BME280;22291;52.250;21.228;2022-11-20T02:32:28;100133.80;;;-6.08;78.83
36254;BME280;22291;52.250;21.228;2022-11-20T02:34:57;100136.92;;;-6.02;78.74
36254;BME280;22291;52.250;21.228;2022-11-20T02:37:28;100144.42;;;-5.98;78.73
36254;BME280;22291;52.250;21.228;2022-11-20T02:39:56;100140.78;;;-5.97;78.54
36254;BME280;22291;52.250;21.228;2022-11-20T02:42:23;100140.27;;;-5.97;78.59
36254;BME280;22291;52.250;21.228;2022-11-20T02:44:49;100145.22;;;-5.98;78.64
36254;BME280;22291;52.250;21.228;2022-11-20T02:47:15;100145.54;;;-5.97;78.63
36254;BME280;22291;52.250;21.228;2022-11-20T02:49:42;100147.05;;;-5.98;78.44
36254;BME280;22291;52.250;21.228;2022-11-20T02:52:08;100145.42;;;-5.99;78.37
36254;BME280;22291;52.250;21.228;2022-11-20T02:54:34;100145.14;;;-6.01;78.40
36254;BME280;22291;52.250;21.228;2022-11-20T02:57:00;100154.16;;;-5.99;78.45
36254;BME280;22291;52.250;21.228;2022-11-20T02:59:26;100158.91;;;-5.98;78.32
36254;BME280;22291;52.250;21.228;2022-11-20T03:01:52;100168.44;;;-5.97;78.48
36254;BME280;22291;52.250;21.228;2022-11-20T03:04:19;100156.59;;;-5.97;78.40
36254;BME280;22291;52.250;21.228;2022-11-20T03:06:45;100159.51;;;-5.96;78.47
36254;BME280;22291;52.250;21.228;2022-11-20T03:09:12;100154.52;;;-5.95;78.55
36254;BME280;22291;52.250;21.228;2022-11-20T03:11:39;100161.71;;;-5.93;78.35
36254;BME280;22291;52.250;21.228;2022-11-20T03:14:05;100158.28;;;-5.94;78.48
36254;BME280;22291;52.250;21.228;2022-11-20T03:16:32;100162.52;;;-5.93;78.41
36254;BME280;22291;52.250;21.228;2022-11-20T03:18:59;100159.88;;;-5.93;78.32
36254;BME280;22291;52.250;21.228;2022-11-20T03:21:25;100155.33;;;-5.95;78.27
36254;BME280;22291;52.250;21.228;2022-11-20T03:23:53;100158.48;;;-5.95;78.13
36254;BME280;22291;52.250;21.228;2022-11-20T03:26:22;100153.95;;;-5.97;78.12
36254;BME280;22291;52.250;21.228;2022-11-20T03:28:52;100149.58;;;-6.01;77.94
36254;BME280;22291;52.250;21.228;2022-11-20T03:31:30;100151.41;;;-6.02;77.73
36254;BME280;22291;52.250;21.228;2022-11-20T03:33:55;100151.81;;;-6.05;77.82
36254;BME280;22291;52.250;21.228;2022-11-20T03:36:22;100145.42;;;-6.06;78.00
36254;BME280;22291;52.250;21.228;2022-11-20T03:38:48;100142.19;;;-6.08;77.99
36254;BME280;22291;52.250;21.228;2022-11-20T03:41:18;100136.84;;;-6.11;77.92
36254;BME280;22291;52.250;21.228;2022-11-20T03:43:50;100141.59;;;-6.10;77.90
36254;BME280;22291;52.250;21.228;2022-11-20T03:46:19;100141.79;;;-6.12;77.76
36254;BME280;22291;52.250;21.228;2022-11-20T03:48:46;100142.30;;;-6.12;77.86
36254;BME280;22291;52.250;21.228;2022-11-20T03:51:16;100139.88;;;-6.14;77.75
36254;BME280;22291;52.250;21.228;2022-11-20T03:53:48;100144.22;;;-6.17;77.68
36254;BME280;22291;52.250;21.228;2022-11-20T03:56:18;100145.53;;;-6.17;77.70
36254;BME280;22291;52.250;21.228;2022-11-20T03:58:46;100144.42;;;-6.18;77.99
36254;BME280;22291;52.250;21.228;2022-11-20T04:01:18;100142.30;;;-6.19;77.88
36254;BME280;22291;52.250;21.228;2022-11-20T04:03:47;100141.90;;;-6.23;77.73
36254;BME280;22291;52.250;21.228;2022-11-20T04:06:37;100136.23;;;-6.26;77.72
36254;BME280;22291;52.250;21.228;2022-11-20T04:08:55;100138.55;;;-6.27;77.65
36254;BME280;22291;52.250;21.228;2022-11-20T04:11:25;100136.31;;;-6.30;77.62
36254;BME280;22291;52.250;21.228;2022-11-20T04:13:56;100130.03;;;-6.36;77.46
36254;BME280;22291;52.250;21.228;2022-11-20T04:16:29;100125.37;;;-6.41;77.70
36254;BME280;22291;52.250;21.228;2022-11-20T04:19:00;100124.77;;;-6.43;77.89
36254;BME280;22291;52.250;21.228;2022-11-20T04:21:28;100121.61;;;-6.49;78.19
36254;BME280;22291;52.250;21.228;2022-11-20T04:23:55;100122.92;;;-6.49;78.18
36254;BME280;22291;52.250;21.228;2022-11-20T04:26:27;100121.52;;;-6.51;78.44
36254;BME280;22291;52.250;21.228;2022-11-20T04:28:55;100119.69;;;-6.51;78.51
36254;BME280;22291;52.250;21.228;2022-11-20T04:31:24;100119.89;;;-6.52;78.59
36254;BME280;22291;52.250;21.228;2022-11-20T04:33:52;100118.28;;;-6.53;78.51
36254;BME280;22291;52.250;21.228;2022-11-20T04:36:24;100120.28;;;-6.55;78.62
36254;BME280;22291;52.250;21.228;2022-11-20T04:38:59;100117.97;;;-6.54;78.59
36254;BME280;22291;52.250;21.228;2022-11-20T04:41:25;100110.08;;;-6.54;78.46
36254;BME280;22291;52.250;21.228;2022-11-20T04:43:56;100105.01;;;-6.56;78.38
36254;BME280;22291;52.250;21.228;2022-11-20T04:46:31;100108.36;;;-6.58;78.35
36254;BME280;22291;52.250;21.228;2022-11-20T04:49:00;100109.16;;;-6.58;78.34
36254;BME280;22291;52.250;21.228;2022-11-20T04:51:27;100104.61;;;-6.60;78.33
36254;BME280;22291;52.250;21.228;2022-11-20T04:53:54;100107.55;;;-6.59;78.26
36254;BME280;22291;52.250;21.228;2022-11-20T04:56:20;100102.08;;;-6.64;78.45
36254;BME280;22291;52.250;21.228;2022-11-20T04:58:46;100101.77;;;-6.65;78.50
36254;BME280;22291;52.250;21.228;2022-11-20T05:01:15;100095.39;;;-6.66;78.50
36254;BME280;22291;52.250;21.228;2022-11-20T05:03:44;100085.58;;;-6.68;78.49
36254;BME280;22291;52.250;21.228;2022-11-20T05:06:14;100083.14;;;-6.70;78.28
36254;BME280;22291;52.250;21.228;2022-11-20T05:08:42;100084.85;;;-6.73;78.28
36254;BME280;22291;52.250;21.228;2022-11-20T05:11:15;100091.34;;;-6.76;78.13
36254;BME280;22291;52.250;21.228;2022-11-20T05:13:42;100092.53;;;-6.78;78.31
36254;BME280;22291;52.250;21.228;2022-11-20T05:16:15;100085.23;;;-6.83;78.33
36254;BME280;22291;52.250;21.228;2022-11-20T05:18:44;100084.34;;;-6.86;78.38
36254;BME280;22291;52.250;21.228;2022-11-20T05:21:11;100086.45;;;-6.85;78.37
36254;BME280;22291;52.250;21.228;2022-11-20T05:23:39;100089.99;;;-6.89;78.45
36254;BME280;22291;52.250;21.228;2022-11-20T05:26:08;100088.08;;;-6.91;78.35
36254;BME280;22291;52.250;21.228;2022-11-20T05:28:39;100085.32;;;-6.93;78.39
36254;BME280;22291;52.250;21.228;2022-11-20T05:31:08;100078.14;;;-6.96;78.38
36254;BME280;22291;52.250;21.228;2022-11-20T05:33:35;100087.54;;;-6.97;78.44
36254;BME280;22291;52.250;21.228;2022-11-20T05:36:04;100085.62;;;-6.99;78.50
36254;BME280;22291;52.250;21.228;2022-11-20T05:38:32;100092.07;;;-7.02;78.50
36254;BME280;22291;52.250;21.228;2022-11-20T05:41:06;100086.81;;;-7.02;78.41
36254;BME280;22291;52.250;21.228;2022-11-20T05:43:44;100076.01;;;-7.03;78.38
36254;BME280;22291;52.250;21.228;2022-11-20T05:46:13;100079.12;;;-7.03;78.55
36254;BME280;22291;52.250;21.228;2022-11-20T05:48:43;100082.06;;;-7.02;78.67
36254;BME280;22291;52.250;21.228;2022-11-20T05:51:16;100079.95;;;-7.03;78.60
36254;BME280;22291;52.250;21.228;2022-11-20T05:53:43;100078.92;;;-7.02;78.63
36254;BME280;22291;52.250;21.228;2022-11-20T05:56:13;100080.05;;;-7.00;78.68
36254;BME280;22291;52.250;21.228;2022-11-20T05:58:45;100074.50;;;-7.01;78.54
36254;BME280;22291;52.250;21.228;2022-11-20T06:01:19;100079.75;;;-7.01;78.62
36254;BME280;22291;52.250;21.228;2022-11-20T06:03:48;100081.36;;;-7.00;78.65
36254;BME280;22291;52.250;21.228;2022-11-20T06:06:18;100075.49;;;-7.02;78.54
36254;BME280;22291;52.250;21.228;2022-11-20T06:08:46;100083.38;;;-7.02;78.47
36254;BME280;22291;52.250;21.228;2022-11-20T06:11:15;100077.32;;;-7.03;78.26
36254;BME280;22291;52.250;21.228;2022-11-20T06:13:43;100082.06;;;-7.02;78.16
36254;BME280;22291;52.250;21.228;2022-11-20T06:16:14;100070.82;;;-7.07;77.89
36254;BME280;22291;52.250;21.228;2022-11-20T06:18:41;100070.82;;;-7.07;77.89
36254;BME280;22291;52.250;21.228;2022-11-20T06:23:44;100060.60;;;-7.12;78.36
36254;BME280;22291;52.250;21.228;2022-11-20T06:26:17;100069.00;;;-7.13;78.49
36254;BME280;22291;52.250;21.228;2022-11-20T06:28:44;100068.80;;;-7.11;78.53
36254;BME280;22291;52.250;21.228;2022-11-20T06:31:14;100073.75;;;-7.12;78.63
36254;BME280;22291;52.250;21.228;2022-11-20T06:33:43;100060.92;;;-7.11;78.65
36254;BME280;22291;52.250;21.228;2022-11-20T06:36:12;100068.39;;;-7.08;78.75
36254;BME280;22291;52.250;21.228;2022-11-20T06:38:41;100069.82;;;-7.06;78.83
36254;BME280;22291;52.250;21.228;2022-11-20T06:41:12;100067.80;;;-7.04;78.96
36254;BME280;22291;52.250;21.228;2022-11-20T06:43:41;100070.36;;;-7.00;78.95
36254;BME280;22291;52.250;21.228;2022-11-20T06:46:09;100076.31;;;-6.95;79.01
36254;BME280;22291;52.250;21.228;2022-11-20T06:48:37;100065.91;;;-6.92;79.05
36254;BME280;22291;52.250;21.228;2022-11-20T06:51:06;100070.66;;;-6.92;79.07
36254;BME280;22291;52.250;21.228;2022-11-20T06:53:34;100065.41;;;-6.85;79.17
36254;BME280;22291;52.250;21.228;2022-11-20T06:56:02;100073.00;;;-6.80;79.22
36254;BME280;22291;52.250;21.228;2022-11-20T06:58:31;100061.16;;;-6.80;79.12
36254;BME280;22291;52.250;21.228;2022-11-20T07:01:00;100057.94;;;-6.75;79.28
36254;BME280;22291;52.250;21.228;2022-11-20T07:03:28;100058.04;;;-6.66;79.58
36254;BME280;22291;52.250;21.228;2022-11-20T07:05:58;100057.36;;;-6.57;79.79
36254;BME280;22291;52.250;21.228;2022-11-20T07:08:26;100058.88;;;-6.52;79.76
36254;BME280;22291;52.250;21.228;2022-11-20T07:11:03;100067.06;;;-6.44;79.67
36254;BME280;22291;52.250;21.228;2022-11-20T07:13:28;100058.85;;;-6.39;79.65
36254;BME280;22291;52.250;21.228;2022-11-20T07:16:01;100053.59;;;-6.32;79.69
36254;BME280;22291;52.250;21.228;2022-11-20T07:18:29;100054.91;;;-6.25;79.69
36254;BME280;22291;52.250;21.228;2022-11-20T07:20:56;100044.88;;;-6.19;79.62
36254;BME280;22291;52.250;21.228;2022-11-20T07:23:22;100051.45;;;-6.12;79.77
36254;BME280;22291;52.250;21.228;2022-11-20T07:25:48;100048.09;;;-6.04;80.05
36254;BME280;22291;52.250;21.228;2022-11-20T07:28:14;100049.77;;;-5.93;79.77
36254;BME280;22291;52.250;21.228;2022-11-20T07:30:40;100039.61;;;-5.83;79.78
36254;BME280;22291;52.250;21.228;2022-11-20T07:33:06;100044.91;;;-5.67;79.92
36254;BME280;22291;52.250;21.228;2022-11-20T07:35:33;100043.30;;;-5.39;81.11
36254;BME280;22291;52.250;21.228;2022-11-20T07:37:59;100042.83;;;-5.07;81.25
36254;BME280;22291;52.250;21.228;2022-11-20T07:40:26;100042.14;;;-4.79;81.21
36254;BME280;22291;52.250;21.228;2022-11-20T07:42:54;100039.19;;;-4.39;82.62
36254;BME280;22291;52.250;21.228;2022-11-20T07:45:23;100037.20;;;-4.00;81.87
36254;BME280;22291;52.250;21.228;2022-11-20T07:47:50;100036.33;;;-3.66;81.03
36254;BME280;22291;52.250;21.228;2022-11-20T07:50:18;100043.13;;;-3.31;79.77
36254;BME280;22291;52.250;21.228;2022-11-20T07:52:46;100040.83;;;-2.88;79.92
36254;BME280;22291;52.250;21.228;2022-11-20T07:55:12;100041.80;;;-2.58;79.26
36254;BME280;22291;52.250;21.228;2022-11-20T07:57:39;100027.88;;;-2.18;79.09
36254;BME280;22291;52.250;21.228;2022-11-20T08:00:09;100033.58;;;-1.89;77.79
36254;BME280;22291;52.250;21.228;2022-11-20T08:02:38;100035.89;;;-1.66;75.57
36254;BME280;22291;52.250;21.228;2022-11-20T08:05:09;100029.09;;;-1.33;77.11
36254;BME280;22291;52.250;21.228;2022-11-20T08:07:37;100034.34;;;-0.92;77.01
36254;BME280;22291;52.250;21.228;2022-11-20T08:10:05;100026.50;;;-0.53;76.80
36254;BME280;22291;52.250;21.228;2022-11-20T08:12:32;100023.94;;;-0.12;75.30
36254;BME280;22291;52.250;21.228;2022-11-20T08:15:17;100032.46;;;0.10;73.30
36254;BME280;22291;52.250;21.228;2022-11-20T08:17:45;100025.77;;;0.27;72.24
36254;BME280;22291;52.250;21.228;2022-11-20T08:20:11;100021.72;;;0.44;71.70
36254;BME280;22291;52.250;21.228;2022-11-20T08:22:38;100026.55;;;0.71;71.39
36254;BME280;22291;52.250;21.228;2022-11-20T08:25:07;100027.08;;;0.96;70.75
36254;BME280;22291;52.250;21.228;2022-11-20T08:27:33;100033.30;;;1.06;70.11
36254;BME280;22291;52.250;21.228;2022-11-20T08:30:00;100026.29;;;1.27;69.64
36254;BME280;22291;52.250;21.228;2022-11-20T08:32:26;100029.25;;;1.31;68.55
36254;BME280;22291;52.250;21.228;2022-11-20T08:34:53;100025.77;;;1.60;70.08
36254;BME280;22291;52.250;21.228;2022-11-20T08:37:19;100024.86;;;1.87;68.48
36254;BME280;22291;52.250;21.228;2022-11-20T08:39:45;100018.00;;;1.99;68.08
36254;BME280;22291;52.250;21.228;2022-11-20T08:42:12;100010.63;;;2.19;67.58
36254;BME280;22291;52.250;21.228;2022-11-20T08:44:39;100011.55;;;2.50;67.15
36254;BME280;22291;52.250;21.228;2022-11-20T08:47:05;100004.94;;;2.68;65.93
36254;BME280;22291;52.250;21.228;2022-11-20T08:49:31;100009.20;;;2.61;64.93
36254;BME280;22291;52.250;21.228;2022-11-20T08:51:58;100001.23;;;2.74;64.38
36254;BME280;22291;52.250;21.228;2022-11-20T08:54:24;100002.55;;;2.72;62.80
36254;BME280;22291;52.250;21.228;2022-11-20T08:56:50;100003.91;;;2.82;64.18
36254;BME280;22291;52.250;21.228;2022-11-20T08:59:17;100006.87;;;3.06;64.12
36254;BME280;22291;52.250;21.228;2022-11-20T09:01:43;100008.78;;;3.18;63.07
36254;BME280;22291;52.250;21.228;2022-11-20T09:04:09;100013.83;;;3.20;62.43
36254;BME280;22291;52.250;21.228;2022-11-20T09:06:37;100017.33;;;3.26;62.58
36254;BME280;22291;52.250;21.228;2022-11-20T09:09:06;100007.16;;;3.38;63.54
36254;BME280;22291;52.250;21.228;2022-11-20T09:11:32;100011.95;;;3.77;63.82
36254;BME280;22291;52.250;21.228;2022-11-20T09:13:59;99993.52;;;3.60;61.40
36254;BME280;22291;52.250;21.228;2022-11-20T09:16:26;99986.30;;;3.53;60.66
36254;BME280;22291;52.250;21.228;2022-11-20T09:18:52;99986.30;;;3.50;60.43
36254;BME280;22291;52.250;21.228;2022-11-20T09:21:19;99981.75;;;3.61;61.29
36254;BME280;22291;52.250;21.228;2022-11-20T09:23:45;99968.62;;;3.75;61.26
36254;BME280;22291;52.250;21.228;2022-11-20T09:26:13;99974.98;;;3.89;60.86
36254;BME280;22291;52.250;21.228;2022-11-20T09:28:40;99970.67;;;4.01;60.49
36254;BME280;22291;52.250;21.228;2022-11-20T09:31:08;99971.96;;;4.19;60.27
36254;BME280;22291;52.250;21.228;2022-11-20T09:33:37;99982.83;;;4.41;60.54
36254;BME280;22291;52.250;21.228;2022-11-20T09:36:04;99966.58;;;4.74;60.45
36254;BME280;22291;52.250;21.228;2022-11-20T09:38:30;99957.97;;;5.17;60.92
36254;BME280;22291;52.250;21.228;2022-11-20T09:41:02;99957.64;;;5.55;58.78
36254;BME280;22291;52.250;21.228;2022-11-20T09:43:54;99952.67;;;5.68;58.74
36254;BME280;22291;52.250;21.228;2022-11-20T09:46:40;99948.78;;;6.06;59.19
36254;BME280;22291;52.250;21.228;2022-11-20T09:54:49;99939.77;;;6.59;56.92
36254;BME280;22291;52.250;21.228;2022-11-20T09:57:21;99947.80;;;7.16;57.13
36254;BME280;22291;52.250;21.228;2022-11-20T09:59:54;99944.39;;;7.57;57.13
36254;BME280;22291;52.250;21.228;2022-11-20T10:05:21;99948.13;;;7.44;53.15
36254;BME280;22291;52.250;21.228;2022-11-20T10:07:55;99949.79;;;7.40;53.81
36254;BME280;22291;52.250;21.228;2022-11-20T10:16:13;99945.23;;;7.85;54.78
36254;BME280;22291;52.250;21.228;2022-11-20T10:22:10;99945.49;;;8.64;53.19
36254;BME280;22291;52.250;21.228;2022-11-20T10:24:28;99945.91;;;8.57;52.08
36254;BME280;22291;52.250;21.228;2022-11-20T10:30:20;99936.44;;;9.59;52.67
36254;BME280;22291;52.250;21.228;2022-11-20T10:32:54;99928.75;;;10.13;52.20
36254;BME280;22291;52.250;21.228;2022-11-20T10:35:45;99923.94;;;10.29;51.26
36254;BME280;22291;52.250;21.228;2022-11-20T10:38:46;99924.86;;;10.54;50.84
36254;BME280;22291;52.250;21.228;2022-11-20T10:41:30;99925.09;;;11.07;49.50
36254;BME280;22291;52.250;21.228;2022-11-20T10:44:17;99919.09;;;11.16;49.77
36254;BME280;22291;52.250;21.228;2022-11-20T10:47:13;99914.94;;;11.28;48.79
36254;BME280;22291;52.250;21.228;2022-11-20T10:49:47;99921.44;;;10.94;46.70
36254;BME280;22291;52.250;21.228;2022-11-20T11:00:21;99906.20;;;10.26;46.81
36254;BME280;22291;52.250;21.228;2022-11-20T11:02:51;99895.23;;;10.31;48.08
36254;BME280;22291;52.250;21.228;2022-11-20T11:05:40;99903.38;;;10.49;47.31
36254;BME280;22291;52.250;21.228;2022-11-20T11:08:12;99904.83;;;10.46;47.28
36254;BME280;22291;52.250;21.228;2022-11-20T11:10:53;99902.91;;;10.55;46.45
36254;BME280;22291;52.250;21.228;2022-11-20T11:13:25;99908.47;;;10.33;46.76
36254;BME280;22291;52.250;21.228;2022-11-20T11:15:54;99901.25;;;10.10;46.85
36254;BME280;22291;52.250;21.228;2022-11-20T11:18:27;99903.39;;;10.11;47.65
36254;BME280;22291;52.250;21.228;2022-11-20T11:20:59;99906.20;;;10.26;47.54
36254;BME280;22291;52.250;21.228;2022-11-20T11:23:38;99902.86;;;10.12;46.45
36254;BME280;22291;52.250;21.228;2022-11-20T11:26:21;99908.88;;;10.08;47.31
36254;BME280;22291;52.250;21.228;2022-11-20T11:29:00;99904.50;;;10.01;47.00
36254;BME280;22291;52.250;21.228;2022-11-20T11:31:33;99899.19;;;10.16;45.84
36254;BME280;22291;52.250;21.228;2022-11-20T11:34:14;99898.47;;;9.76;45.70
36254;BME280;22291;52.250;21.228;2022-11-20T11:36:57;99903.51;;;9.68;47.26
36254;BME280;22291;52.250;21.228;2022-11-20T11:39:26;99902.30;;;9.83;47.21
36254;BME280;22291;52.250;21.228;2022-11-20T11:41:53;99904.70;;;9.94;46.86
36254;BME280;22291;52.250;21.228;2022-11-20T11:44:27;99897.45;;;9.83;47.09
36254;BME280;22291;52.250;21.228;2022-11-20T11:47:25;99898.09;;;9.88;46.18
36254;BME280;22291;52.250;21.228;2022-11-20T11:53:11;99896.84;;;9.34;46.11
36254;BME280;22291;52.250;21.228;2022-11-20T11:55:50;99898.70;;;8.94;45.69
36254;BME280;22291;52.250;21.228;2022-11-20T11:58:48;99889.55;;;8.58;45.76
36254;BME280;22291;52.250;21.228;2022-11-20T12:04:29;99884.28;;;8.76;48.13
36254;BME280;22291;52.250;21.228;2022-11-20T12:07:32;99882.05;;;9.01;47.51
36254;BME280;22291;52.250;21.228;2022-11-20T12:10:01;99873.66;;;9.02;47.28
36254;BME280;22291;52.250;21.228;2022-11-20T12:12:41;99874.95;;;9.16;47.27
36254;BME280;22291;52.250;21.228;2022-11-20T12:15:16;99877.34;;;9.06;46.96
36254;BME280;22291;52.250;21.228;2022-11-20T12:17:47;99866.94;;;8.91;46.65
36254;BME280;22291;52.250;21.228;2022-11-20T12:20:14;99870.44;;;8.69;46.20
36254;BME280;22291;52.250;21.228;2022-11-20T12:25:27;99868.66;;;8.28;46.49
36254;BME280;22291;52.250;21.228;2022-11-20T12:31:42;99860.28;;;8.15;46.77
36254;BME280;22291;52.250;21.228;2022-11-20T12:39:41;99851.05;;;7.55;45.74
36254;BME280;22291;52.250;21.228;2022-11-20T12:42:36;99845.41;;;7.09;46.13
36254;BME280;22291;52.250;21.228;2022-11-20T12:45:52;99842.32;;;6.53;46.19
36254;BME280;22291;52.250;21.228;2022-11-20T12:57:27;99843.48;;;6.11;48.70
36254;BME280;22291;52.250;21.228;2022-11-20T13:02:52;99821.37;;;5.98;49.87
36254;BME280;22291;52.250;21.228;2022-11-20T13:07:55;99825.61;;;6.21;49.82
36254;BME280;22291;52.250;21.228;2022-11-20T13:10:43;99826.45;;;6.19;50.00
36254;BME280;22291;52.250;21.228;2022-11-20T13:13:25;99820.59;;;6.14;50.08
36254;BME280;22291;52.250;21.228;2022-11-20T13:19:01;99805.73;;;6.22;50.18
36254;BME280;22291;52.250;21.228;2022-11-20T13:21:43;99813.58;;;6.18;49.95
36254;BME280;22291;52.250;21.228;2022-11-20T13:27:02;99803.70;;;5.70;49.31
36254;BME280;22291;52.250;21.228;2022-11-20T13:29:43;99810.50;;;5.41;49.28
36254;BME280;22291;52.250;21.228;2022-11-20T13:32:16;99795.91;;;5.04;49.67
36254;BME280;22291;52.250;21.228;2022-11-20T13:34:52;99800.45;;;4.74;50.04
36254;BME280;22291;52.250;21.228;2022-11-20T13:37:32;99799.61;;;4.47;50.24
36254;BME280;22291;52.250;21.228;2022-11-20T13:45:25;99800.03;;;3.85;51.71
36254;BME280;22291;52.250;21.228;2022-11-20T13:47:54;99801.78;;;3.50;51.66
36254;BME280;22291;52.250;21.228;2022-11-20T13:56:17;99787.52;;;2.87;53.08
36254;BME280;22291;52.250;21.228;2022-11-20T14:02:13;99790.77;;;2.51;54.28
36254;BME280;22291;52.250;21.228;2022-11-20T14:04:47;99779.27;;;2.24;54.67
36254;BME280;22291;52.250;21.228;2022-11-20T14:07:18;99774.19;;;2.05;54.95
36254;BME280;22291;52.250;21.228;2022-11-20T14:09:54;99780.80;;;1.82;55.38
36254;BME280;22291;52.250;21.228;2022-11-20T14:12:33;99778.61;;;1.63;56.13
36254;BME280;22291;52.250;21.228;2022-11-20T14:14:54;99783.11;;;1.45;56.43
36254;BME280;22291;52.250;21.228;2022-11-20T14:17:29;99780.35;;;1.24;56.43
36254;BME280;22291;52.250;21.228;2022-11-20T14:20:05;99772.26;;;1.06;56.48
36254;BME280;22291;52.250;21.228;2022-11-20T14:22:34;99768.72;;;0.93;57.86
36254;BME280;22291;52.250;21.228;2022-11-20T14:25:05;99764.66;;;0.80;57.53
36254;BME280;22291;52.250;21.228;2022-11-20T14:27:47;99766.44;;;0.69;58.18
36254;BME280;22291;52.250;21.228;2022-11-20T14:30:43;99768.52;;;0.60;58.60
36254;BME280;22291;52.250;21.228;2022-11-20T14:33:13;99759.06;;;0.44;58.42